Time;durP1;ratioP1;P1;durP2;ratioP2;P2;SDS_P1;SDS_P2;PMS_P1;PMS_P2;Temp;Humidity;BMP_temperature;BMP_pressure;BME280_temperature;BME280_humidity;BME280_pressure;Samples;Min_cycle;Max_cycle;Signal;HPM_P1;HPM_P2
2022/04/04 00:00:58;;;;;;;20.38;8.65;;;;;;;-1.21;65.90;99924.34;5093521;28;20040;-68
2022/04/04 00:03:27;;;;;;;19.65;7.95;;;;;;;-1.41;65.79;99912.47;5093561;28;20040;-68
2022/04/04 00:05:56;;;;;;;19.73;8.25;;;;;;;-1.33;66.13;99921.25;5093529;28;20051;-69
2022/04/04 00:08:25;;;;;;;19.07;8.00;;;;;;;-1.13;65.99;99912.22;5093469;28;20047;-69
2022/04/04 00:10:54;;;;;;;25.45;7.85;;;;;;;-1.39;66.17;99926.78;5093401;28;20277;-69
2022/04/04 00:13:25;;;;;;;17.35;7.68;;;;;;;-1.24;66.09;99930.84;5093748;28;20047;-69
2022/04/04 00:15:54;;;;;;;16.85;7.60;;;;;;;-1.26;66.17;99927.41;5093786;28;20047;-69
2022/04/04 00:18:23;;;;;;;16.07;7.10;;;;;;;-1.10;65.93;99927.38;5075452;28;20044;-69
2022/04/04 00:20:52;;;;;;;14.00;6.10;;;;;;;-1.29;66.30;99932.25;5093040;28;20843;-69
2022/04/04 00:23:22;;;;;;;17.30;6.70;;;;;;;-1.23;66.18;99927.56;5093369;28;20280;-69
2022/04/04 00:25:51;;;;;;;19.52;8.38;;;;;;;-1.37;65.66;99910.19;5093623;28;20113;-69
2022/04/04 00:28:20;;;;;;;18.70;8.90;;;;;;;-1.47;66.48;99930.56;5093617;28;20394;-69
2022/04/04 00:30:50;;;;;;;20.65;8.48;;;;;;;-1.44;66.16;99937.38;5093599;28;20036;-69
2022/04/04 00:33:20;;;;;;;16.58;8.80;;;;;;;-1.79;66.25;99925.56;5096575;28;20044;-69
2022/04/04 00:35:49;;;;;;;17.42;9.07;;;;;;;-1.76;66.73;99928.22;5097299;28;20048;-69
2022/04/04 00:38:18;;;;;;;17.03;9.27;;;;;;;-1.96;67.77;99933.81;5097174;28;20048;-68
2022/04/04 00:40:47;;;;;;;14.27;7.80;;;;;;;-1.95;68.01;99935.56;5097010;28;20044;-68
2022/04/04 00:43:16;;;;;;;17.23;8.27;;;;;;;-1.91;68.15;99932.44;5097033;28;20292;-68
2022/04/04 00:45:46;;;;;;;20.02;9.05;;;;;;;-1.93;68.32;99931.50;5097028;28;20048;-69
2022/04/04 00:48:16;;;;;;;18.80;8.35;;;;;;;-1.93;68.92;99938.13;5097271;28;20097;-68
2022/04/04 00:50:45;;;;;;;19.15;9.07;;;;;;;-1.97;68.73;99942.13;5096977;28;20048;-68
2022/04/04 00:53:14;;;;;;;19.50;9.13;;;;;;;-1.95;69.22;99938.06;5097210;28;20494;-68
2022/04/04 00:55:44;;;;;;;19.13;8.27;;;;;;;-1.97;68.96;99938.75;5097169;28;20430;-68
2022/04/04 00:58:14;;;;;;;16.48;7.43;;;;;;;-2.06;69.98;99931.63;5096745;28;20098;-68
2022/04/04 01:00:46;;;;;;;14.10;7.45;;;;;;;-1.85;70.09;99925.25;5096669;28;20047;-68
2022/04/04 01:03:17;;;;;;;15.77;7.72;;;;;;;-1.79;69.55;99920.56;5096691;28;20052;-69
2022/04/04 01:05:47;;;;;;;17.30;7.68;;;;;;;-1.57;69.29;99920.88;5096656;28;20043;-68
2022/04/04 01:08:17;;;;;;;18.20;8.23;;;;;;;-1.57;69.20;99910.88;5096945;28;20039;-69
2022/04/04 01:10:45;;;;;;;17.48;7.90;;;;;;;-1.85;69.37;99907.75;5096994;28;20783;-69
2022/04/04 01:13:14;;;;;;;17.33;8.60;;;;;;;-1.73;69.45;99893.38;5096442;28;20089;-69
2022/04/04 01:15:44;;;;;;;15.50;8.27;;;;;;;-1.70;68.58;99905.16;5096537;28;20123;-69
2022/04/04 01:18:13;;;;;;;19.05;8.18;;;;;;;-1.87;69.78;99909.28;5096431;28;20055;-69
2022/04/04 01:20:43;;;;;;;16.88;8.45;;;;;;;-1.93;70.08;99893.97;5096126;28;20048;-68
2022/04/04 01:23:14;;;;;;;19.27;8.80;;;;;;;-1.64;70.31;99911.34;5096626;28;20093;-68
2022/04/04 01:25:44;;;;;;;22.88;9.52;;;;;;;-1.66;69.63;99910.41;5096387;28;20162;-67
2022/04/04 01:28:13;;;;;;;20.85;9.38;;;;;;;-1.56;69.13;99917.56;5096586;28;20044;-68
2022/04/04 01:30:43;;;;;;;19.90;9.40;;;;;;;-1.80;68.92;99910.50;5096167;28;20051;-67
2022/04/04 01:33:12;;;;;;;20.55;9.18;;;;;;;-1.44;68.29;99910.69;5096632;28;20389;-68
2022/04/04 01:35:41;;;;;;;20.60;9.32;;;;;;;-1.55;67.53;99913.44;5096404;28;20451;-66
2022/04/04 01:38:10;;;;;;;24.53;9.80;;;;;;;-1.66;68.19;99914.53;5096038;28;20040;-68
2022/04/04 01:40:39;;;;;;;20.90;8.93;;;;;;;-1.56;68.08;99917.56;5095947;28;20044;-68
2022/04/04 01:43:10;;;;;;;20.90;9.13;;;;;;;-1.52;68.75;99921.97;5094945;28;20127;-68
2022/04/04 01:48:17;;;;;;;20.42;9.10;;;;;;;-1.56;67.78;99922.56;5096166;28;20071;-69
2022/04/04 01:50:46;;;;;;;19.63;9.67;;;;;;;-1.57;67.61;99920.88;5095774;28;20047;-68
2022/04/04 01:55:54;;;;;;;18.00;9.00;;;;;;;-1.68;68.57;99923.63;5096042;28;20507;-68
2022/04/04 01:58:25;;;;;;;20.80;8.75;;;;;;;-1.67;68.94;99927.81;5095678;28;20128;-68
2022/04/04 02:00:56;;;;;;;20.23;8.75;;;;;;;-1.59;69.13;99932.44;5095565;28;20044;-69
2022/04/04 02:03:26;;;;;;;24.20;9.02;;;;;;;-1.67;69.32;99937.81;5095481;28;20048;-68
2022/04/04 02:05:55;;;;;;;18.40;8.45;;;;;;;-1.82;70.16;99932.06;5096302;28;20044;-69
2022/04/04 02:08:24;;;;;;;14.02;7.32;;;;;;;-1.86;70.87;99937.66;5095946;28;20055;-68
2022/04/04 02:10:53;;;;;;;21.67;7.93;;;;;;;-1.85;71.10;99935.25;5095727;28;20385;-68
2022/04/04 02:13:23;;;;;;;16.03;8.90;;;;;;;-1.77;71.38;99931.50;5095381;28;20101;-68
2022/04/04 02:15:54;;;;;;;15.88;7.38;;;;;;;-1.54;70.80;99928.53;5095316;28;20291;-69
2022/04/04 02:18:24;;;;;;;20.42;8.77;;;;;;;-1.38;70.20;99927.66;5095338;28;20052;-69
2022/04/04 02:20:53;;;;;;;;;;;;;;;-1.31;69.75;99923.81;5095617;28;20525;-68
2022/04/04 02:23:22;;;;;;;17.20;8.20;;;;;;;-1.39;69.70;99919.28;5095431;28;19926;-69
2022/04/04 02:25:55;;;;;;;21.50;8.75;;;;;;;-1.18;68.98;99937.03;5095336;28;20130;-68
2022/04/04 02:28:24;;;;;;;17.83;8.73;;;;;;;-1.34;69.05;99932.03;5095381;28;20571;-68
2022/04/04 02:30:57;;;;;;;17.98;8.93;;;;;;;-1.31;68.94;99928.81;5095005;28;20097;-68
2022/04/04 02:33:26;;;;;;;18.63;8.88;;;;;;;-1.44;69.26;99923.19;5094987;28;20044;-68
2022/04/04 02:35:55;;;;;;;20.90;8.85;;;;;;;-1.38;68.88;99925.16;5095182;28;20036;-68
2022/04/04 02:38:26;;;;;;;18.95;8.30;;;;;;;-1.38;69.11;99928.53;5094816;28;20044;-68
2022/04/04 02:40:56;;;;;;;20.35;8.88;;;;;;;-1.33;68.82;99920.38;5095138;28;20039;-67
2022/04/04 02:43:25;;;;;;;19.10;8.55;;;;;;;-1.19;69.12;99916.91;5094764;28;20075;-68
2022/04/04 02:45:56;;;;;;;20.92;8.80;;;;;;;-1.44;68.63;99923.19;5094700;28;20074;-68
2022/04/04 02:48:25;;;;;;;17.45;8.70;;;;;;;-1.64;69.05;99923.84;5095014;28;20559;-68
2022/04/04 02:50:54;;;;;;;19.77;8.80;;;;;;;-1.76;69.34;99888.22;5094878;28;20497;-68
2022/04/04 02:53:23;;;;;;;20.38;8.98;;;;;;;-1.93;70.69;99921.50;5094605;28;20064;-66
2022/04/04 02:58:30;;;;;;;14.05;7.95;;;;;;;-1.97;71.36;99921.25;5094513;28;20497;-69
2022/04/04 03:01:00;;;;;;;21.87;8.70;;;;;;;-1.92;71.68;99923.19;5094404;28;20044;-68
2022/04/04 03:03:29;;;;;;;17.83;8.75;;;;;;;-2.02;71.31;99918.53;5076391;28;20050;-68
2022/04/04 03:05:58;;;;;;;16.33;8.73;;;;;;;-2.30;72.09;99917.81;5094981;28;20086;-68
2022/04/04 03:08:27;;;;;;;16.75;8.45;;;;;;;-2.50;72.19;99921.78;5094707;28;20119;-66
2022/04/04 03:10:56;;;;;;;24.15;9.52;;;;;;;-2.52;72.63;99917.47;5094588;28;20036;-68
2022/04/04 03:13:25;;;;;;;20.95;8.43;;;;;;;-2.32;73.16;99912.75;5094531;28;20097;-68
2022/04/04 03:15:54;;;;;;;21.42;9.70;;;;;;;-2.47;72.11;99911.09;5094169;28;20048;-68
2022/04/04 03:18:24;;;;;;;21.35;8.70;;;;;;;-2.62;72.13;99912.75;5094127;28;20044;-68
2022/04/04 03:20:54;;;;;;;19.88;7.72;;;;;;;-2.90;72.20;99912.84;5093872;28;20048;-68
2022/04/04 03:23:24;;;;;;;14.02;7.57;;;;;;;-2.68;72.76;99904.91;5094043;28;20074;-68
2022/04/04 03:25:54;;;;;;;12.18;6.22;;;;;;;-2.59;71.87;99905.41;5094146;28;20055;-68
2022/04/04 03:28:23;;;;;;;16.07;6.03;;;;;;;-2.16;71.43;99911.94;5094243;28;20102;-67
2022/04/04 03:30:52;;;;;;;9.35;5.15;;;;;;;-2.26;69.75;99907.22;5094284;28;20028;-67
2022/04/04 03:33:21;;;;;;;11.18;5.40;;;;;;;-2.11;70.06;99903.00;5093925;28;20036;-67
2022/04/04 03:35:53;;;;;;;11.32;5.53;;;;;;;-1.96;69.12;99901.31;5094169;28;20048;-68
2022/04/04 03:38:21;;;;;;;11.57;5.13;;;;;;;-2.16;68.02;99904.44;5093800;28;20046;-67
2022/04/04 03:40:50;;;;;;;12.77;4.80;;;;;;;-2.38;69.08;99906.56;5094099;28;20051;-68
2022/04/04 03:43:19;;;;;;;11.05;5.10;;;;;;;-2.50;69.13;99913.41;5094729;28;20098;-67
2022/04/04 03:45:48;;;;;;;;;;;;;;;-2.85;69.72;99909.84;5094552;28;20063;-68
2022/04/04 03:48:17;;;;;;;10.23;4.70;;;;;;;-2.86;69.57;99910.63;5093501;28;19920;-68
2022/04/04 03:50:47;;;;;;;10.43;4.03;;;;;;;-3.20;69.78;99907.00;5093671;28;20123;-65
2022/04/04 03:53:18;;;;;;;10.60;4.65;;;;;;;-3.11;71.64;99916.63;5093616;28;20044;-67
2022/04/04 03:55:47;;;;;;;10.18;5.00;;;;;;;-2.53;70.16;99910.75;5093655;28;20059;-68
2022/04/04 03:58:16;;;;;;;21.50;19.37;;;;;;;-2.57;69.42;99908.84;5093576;28;20089;-68
2022/04/04 04:00:45;;;;;;;18.63;5.47;;;;;;;-2.65;69.23;99905.94;5093896;28;20048;-66
2022/04/04 04:03:14;;;;;;;8.00;4.22;;;;;;;-2.96;69.79;99907.53;5093771;28;20093;-66
2022/04/04 04:05:43;;;;;;;9.75;4.63;;;;;;;-3.23;69.87;99900.97;5093529;28;20040;-66
2022/04/04 04:08:12;;;;;;;15.73;5.90;;;;;;;-3.61;71.21;99903.78;5096917;28;20559;-68
2022/04/04 04:10:43;;;;;;;13.18;5.55;;;;;;;-3.57;71.72;99898.19;5097724;28;20368;-66
2022/04/04 04:13:12;;;;;;;12.45;4.72;;;;;;;-3.69;71.99;99899.97;5097983;28;20390;-66
2022/04/04 04:15:40;;;;;;;8.30;4.53;;;;;;;-3.74;72.42;99898.88;5079884;28;20040;-67
2022/04/04 04:18:09;;;;;;;7.82;4.22;;;;;;;-3.52;72.17;99891.81;5097551;28;20075;-65
2022/04/04 04:20:38;;;;;;;14.38;6.88;;;;;;;-3.16;72.65;99900.53;5097352;28;20060;-68
2022/04/04 04:23:09;;;;;;;11.98;6.18;;;;;;;-2.81;71.12;99893.41;5097396;28;20039;-68
2022/04/04 04:25:39;;;;;;;16.35;6.60;;;;;;;-3.23;71.60;99901.84;5097434;28;20044;-67
2022/04/04 04:28:10;;;;;;;14.77;6.57;;;;;;;-3.33;71.73;99897.09;5097323;28;20051;-66
2022/04/04 04:30:40;;;;;;;14.52;6.93;;;;;;;-3.50;71.65;99897.75;5097369;28;20046;-67
2022/04/04 04:33:09;;;;;;;17.15;6.35;;;;;;;-3.54;72.20;99905.84;5097337;28;20058;-66
2022/04/04 04:35:38;;;;;;;16.15;7.82;;;;;;;-3.57;72.38;99900.69;5097229;28;20493;-68
2022/04/04 04:38:07;;;;;;;19.92;7.53;;;;;;;-3.64;72.46;99892.00;5079152;28;20032;-67
2022/04/04 04:40:36;;;;;;;11.82;6.53;;;;;;;-3.37;73.02;99897.72;5097098;28;20048;-68
2022/04/04 04:43:06;;;;;;;18.88;7.53;;;;;;;-3.45;72.20;99898.88;5079021;28;20040;-66
2022/04/04 04:45:36;;;;;;;16.52;7.60;;;;;;;-3.05;72.82;99897.03;5097022;28;20050;-68
2022/04/04 04:48:06;;;;;;;19.27;7.60;;;;;;;-2.53;71.57;99905.75;5097071;28;20068;-68
2022/04/04 04:50:35;;;;;;;21.85;9.10;;;;;;;-2.41;70.94;99906.41;5096911;28;20028;-67
2022/04/04 04:53:04;;;;;;;20.10;8.60;;;;;;;-2.63;70.78;99913.50;5096910;28;20123;-66
2022/04/04 04:55:33;;;;;;;9.68;6.03;;;;;;;-2.68;70.56;99907.41;5097209;28;20063;-68
2022/04/04 04:58:02;;;;;;;16.63;7.72;;;;;;;-2.38;70.41;99911.56;5096846;28;20051;-68
2022/04/04 05:00:31;;;;;;;14.07;7.03;;;;;;;-2.15;70.39;99906.13;5097330;28;20460;-68
2022/04/04 05:05:40;;;;;;;13.03;7.10;;;;;;;-1.50;68.75;99907.03;5096765;28;19920;-67
2022/04/04 05:08:09;;;;;;;15.52;7.25;;;;;;;0.70;63.94;99911.41;5096649;28;20044;-66
2022/04/04 05:10:38;;;;;;;12.98;6.50;;;;;;;-0.16;63.46;99908.50;5096520;28;20059;-68
2022/04/04 05:13:07;;;;;;;14.87;7.40;;;;;;;-0.81;64.90;99914.59;5096880;28;20036;-67
2022/04/04 05:15:36;;;;;;;9.48;5.95;;;;;;;0.49;64.55;99910.50;5096591;28;20508;-71
2022/04/04 05:18:07;;;;;;;14.10;6.22;;;;;;;0.22;63.40;99911.81;5097382;28;20126;-68
2022/04/04 05:20:36;;;;;;;13.43;6.60;;;;;;;-0.35;64.15;99915.97;5096239;28;20513;-68
2022/04/04 05:23:05;;;;;;;14.63;6.03;;;;;;;-0.66;64.61;99925.34;5096300;28;20044;-67
2022/04/04 05:25:34;;;;;;;11.43;6.10;;;;;;;-0.55;64.89;99926.72;5096342;28;20036;-68
2022/04/04 05:28:03;;;;;;;10.73;5.93;;;;;;;-0.43;65.06;99929.78;5096287;28;20033;-68
2022/04/04 05:30:32;;;;;;;13.45;6.32;;;;;;;-0.28;64.85;99935.53;5096103;28;20040;-68
2022/04/04 05:33:01;;;;;;;13.90;6.18;;;;;;;-0.09;64.81;99928.03;5096500;28;20383;-69
2022/04/04 05:35:31;;;;;;;11.20;6.38;;;;;;;0.16;64.04;99924.97;5096523;28;20059;-69
2022/04/04 05:38:00;;;;;;;12.77;5.95;;;;;;;0.30;63.85;99933.09;5096089;28;20139;-69
2022/04/04 05:40:29;;;;;;;14.32;6.80;;;;;;;0.47;63.90;99939.72;5095938;28;20051;-69
2022/04/04 05:43:00;;;;;;;12.93;7.00;;;;;;;0.65;63.34;99937.97;5095889;28;20128;-69
2022/04/04 05:45:30;;;;;;;14.45;6.82;;;;;;;0.92;63.35;99939.13;5096245;28;20409;-69
2022/04/04 05:47:59;;;;;;;12.02;5.80;;;;;;;0.86;62.71;99940.56;5096194;28;20126;-69
2022/04/04 05:50:27;;;;;;;13.48;5.43;;;;;;;0.93;62.81;99937.50;5096059;28;20040;-69
2022/04/04 05:52:58;;;;;;;13.43;6.32;;;;;;;0.97;63.03;99941.84;5095762;28;20040;-70
2022/04/04 05:55:28;;;;;;;12.18;6.32;;;;;;;1.23;61.39;99942.09;5096057;28;20048;-69
2022/04/04 05:57:56;;;;;;;;;;;;;;;1.12;61.34;99938.31;5096390;28;20105;-69
2022/04/04 06:00:25;;;;;;;11.10;5.55;;;;;;;1.55;61.40;99943.38;5095674;28;20380;-70
2022/04/04 06:02:55;;;;;;;11.77;7.00;;;;;;;1.60;60.30;99939.41;5095812;28;20490;-70
2022/04/04 06:05:24;;;;;;;13.05;6.00;;;;;;;1.72;59.86;99949.06;5095813;28;20094;-69
2022/04/04 06:07:53;;;;;;;13.15;6.68;;;;;;;1.54;59.09;99948.34;5095483;28;20044;-69
2022/04/04 06:10:23;;;;;;;16.77;6.97;;;;;;;1.64;59.61;99945.38;5077659;28;20109;-70
2022/04/04 06:12:52;;;;;;;12.57;6.80;;;;;;;1.93;59.15;99949.88;5095433;28;20055;-70
2022/04/04 06:15:21;;;;;;;11.93;5.43;;;;;;;2.06;58.54;99942.00;5095329;28;20051;-70
2022/04/04 06:17:50;;;;;;;15.60;7.47;;;;;;;2.11;57.12;99945.53;5095559;28;20036;-70
2022/04/04 06:20:19;;;;;;;14.30;7.30;;;;;;;2.23;58.39;99945.94;5094987;28;20058;-70
2022/04/04 06:22:49;;;;;;;13.32;7.03;;;;;;;2.24;58.30;99947.69;5095318;28;20040;-70
2022/04/04 06:25:21;;;;;;;17.08;7.82;;;;;;;2.57;58.11;99953.91;5095144;28;20497;-70
2022/04/04 06:27:52;;;;;;;18.65;8.30;;;;;;;2.68;57.19;99947.63;5095048;28;20048;-71
2022/04/04 06:30:22;;;;;;;18.83;7.75;;;;;;;2.81;56.48;99945.50;5094989;28;20445;-68
2022/04/04 06:32:51;;;;;;;12.60;6.45;;;;;;;2.57;56.76;99948.88;5095275;28;20067;-68
2022/04/04 06:35:23;;;;;;;13.10;5.50;;;;;;;2.73;56.91;99951.13;5094945;28;20050;-71
2022/04/04 06:37:53;;;;;;;11.57;4.88;;;;;;;3.19;56.06;99942.59;5094839;28;20083;-70
2022/04/04 06:40:22;;;;;;;11.13;5.57;;;;;;;3.33;54.50;99946.41;5093935;28;20134;-70
2022/04/04 06:42:52;;;;;;;;;;;;;;;3.41;53.62;99944.97;5095496;28;20570;-71
2022/04/04 06:45:22;;;;;;;6.47;4.05;;;;;;;3.43;53.99;99943.38;5089767;28;19942;-69
2022/04/04 06:47:51;;;;;;;8.45;4.85;;;;;;;3.35;53.60;99952.38;5115247;28;20485;-70
2022/04/04 06:50:21;;;;;;;8.48;5.28;;;;;;;3.68;54.24;99938.28;5106177;28;20044;-71
2022/04/04 06:52:52;;;;;;;10.80;4.68;;;;;;;3.70;53.90;99944.22;5088208;28;20036;-72
2022/04/04 06:55:42;;;;;;;9.60;4.85;;;;;;;3.83;52.50;99946.31;5092275;28;20051;-72
2022/04/04 06:58:12;;;;;;;8.10;4.28;;;;;;;4.16;51.42;99935.50;5114944;28;20047;-72
2022/04/04 07:00:42;;;;;;;8.13;5.10;;;;;;;4.35;51.79;99937.72;5080147;28;20596;-71
2022/04/04 07:03:11;;;;;;;9.82;5.43;;;;;;;4.45;50.99;99937.16;5083239;28;20065;-71
2022/04/04 07:05:41;;;;;;;6.65;3.33;;;;;;;4.61;52.49;99936.75;5093008;28;20039;-71
2022/04/04 07:08:10;;;;;;;8.00;3.97;;;;;;;4.84;51.58;99928.13;5114698;28;20481;-71
2022/04/04 07:10:39;;;;;;;10.70;5.32;;;;;;;5.10;49.60;99939.75;5110155;28;20504;-70
2022/04/04 07:13:08;;;;;;;8.18;3.97;;;;;;;5.28;48.74;99940.19;5113824;28;20031;-70
2022/04/04 07:15:41;;;;;;;8.25;4.10;;;;;;;5.21;48.04;99938.34;5114601;28;20048;-71
2022/04/04 07:18:10;;;;;;;10.20;4.43;;;;;;;4.60;48.72;99935.06;5114543;28;20122;-71
2022/04/04 07:20:39;;;;;;;8.68;4.20;;;;;;;5.31;48.97;99940.28;5114275;28;20052;-71
2022/04/04 07:23:08;;;;;;;6.73;3.77;;;;;;;6.04;47.57;99927.66;5114662;28;20123;-71
2022/04/04 07:25:37;;;;;;;8.68;4.15;;;;;;;5.69;45.91;99940.31;5114759;28;20288;-70
2022/04/04 07:28:08;;;;;;;5.47;3.88;;;;;;;5.42;46.35;99938.84;5114673;28;20044;-71
2022/04/04 07:30:38;;;;;;;8.52;4.82;;;;;;;5.54;47.32;99928.19;5114348;28;20558;-70
2022/04/04 07:33:10;;;;;;;7.10;4.30;;;;;;;5.77;46.96;99923.63;5114594;28;20560;-70
2022/04/04 07:35:39;;;;;;;7.25;3.95;;;;;;;5.91;46.86;99929.88;5114346;28;20048;-70
2022/04/04 07:38:07;;;;;;;7.60;4.50;;;;;;;5.98;46.02;99921.59;5114195;28;20051;-70
2022/04/04 07:40:37;;;;;;;8.90;5.10;;;;;;;5.84;46.70;99928.00;5114174;28;20047;-70
2022/04/04 07:43:06;;;;;;;7.75;4.20;;;;;;;6.46;45.59;99912.44;5114148;28;20039;-68
2022/04/04 07:45:35;;;;;;;7.85;3.42;;;;;;;6.56;44.50;99921.09;5114346;28;20423;-70
2022/04/04 07:48:12;;;;;;;6.57;3.38;;;;;;;7.13;43.71;99914.50;5114117;28;20138;-70
2022/04/04 07:50:43;;;;;;;7.97;4.20;;;;;;;7.49;43.46;99913.38;5113909;28;20047;-70
2022/04/04 07:53:13;;;;;;;6.93;4.05;;;;;;;7.47;43.29;99909.97;5099610;28;20044;-70
2022/04/04 07:55:42;;;;;;;7.28;3.50;;;;;;;7.08;43.20;99915.28;5087460;28;20580;-70
2022/04/04 07:58:11;;;;;;;7.35;3.47;;;;;;;7.57;42.57;99907.59;5093644;28;20054;-70
2022/04/04 08:00:40;;;;;;;5.07;2.77;;;;;;;7.27;42.33;99907.97;5093864;28;20043;-70
2022/04/04 08:03:11;;;;;;;6.72;3.30;;;;;;;7.50;40.92;99905.78;5093562;28;20302;-70
2022/04/04 08:05:40;;;;;;;8.77;3.78;;;;;;;7.84;42.31;99902.91;5093423;28;20051;-71
2022/04/04 08:08:09;;;;;;;6.13;3.10;;;;;;;7.76;39.83;99899.41;5093480;28;20075;-68
2022/04/04 08:10:38;;;;;;;6.13;3.08;;;;;;;8.17;41.28;99904.16;5093503;28;20050;-68
2022/04/04 08:13:07;;;;;;;7.60;3.55;;;;;;;8.26;39.14;99901.72;5093404;28;20044;-70
2022/04/04 08:15:36;;;;;;;6.35;3.15;;;;;;;7.68;38.46;99905.22;5100162;28;20123;-69
2022/04/04 08:18:06;;;;;;;7.00;3.30;;;;;;;7.56;39.80;99894.88;5113765;28;20039;-68
2022/04/04 08:20:37;;;;;;;6.22;3.30;;;;;;;8.05;39.52;99899.78;5092955;28;20075;-70
2022/04/04 08:23:06;;;;;;;6.43;3.88;;;;;;;7.91;39.24;99888.59;5076396;28;20044;-69
2022/04/04 08:25:35;;;;;;;5.87;2.67;;;;;;;7.62;39.48;99900.03;5095766;28;20037;-68
2022/04/04 08:28:05;;;;;;;6.25;3.38;;;;;;;8.18;40.58;99896.59;5085543;28;20045;-70
2022/04/04 08:30:34;;;;;;;9.75;4.00;;;;;;;8.04;37.89;99885.34;5073204;28;20064;-69
2022/04/04 08:33:03;;;;;;;5.03;3.38;;;;;;;8.15;39.46;99888.03;5073127;28;20044;-70
2022/04/04 08:35:32;;;;;;;7.97;3.33;;;;;;;8.08;38.00;99877.81;5095551;28;20043;-69
2022/04/04 08:38:03;;;;;;;5.68;3.30;;;;;;;8.26;38.18;99896.66;5094031;28;20044;-70
2022/04/04 08:40:32;;;;;;;4.40;2.75;;;;;;;8.06;38.58;99891.34;5102400;28;20069;-69
2022/04/04 08:43:01;;;;;;;6.80;3.05;;;;;;;8.03;39.05;99874.38;5113521;28;20042;-69
2022/04/04 08:45:30;;;;;;;5.35;2.90;;;;;;;8.65;37.39;99876.78;5107131;28;20041;-69
2022/04/04 08:47:59;;;;;;;4.90;2.55;;;;;;;8.74;35.24;99871.78;5113839;28;20043;-70
2022/04/04 08:50:28;;;;;;;4.68;2.50;;;;;;;9.29;36.32;99862.91;5113529;28;20055;-70
2022/04/04 08:52:58;;;;;;;4.07;2.33;;;;;;;9.71;34.39;99859.78;5114406;28;20461;-70
2022/04/04 08:55:30;;;;;;;4.00;2.25;;;;;;;10.14;33.83;99860.88;5117233;28;20130;-70
2022/04/04 08:57:59;;;;;;;3.80;1.98;;;;;;;10.37;33.04;99861.78;5117291;28;20405;-70
2022/04/04 09:00:29;;;;;;;4.77;2.03;;;;;;;10.40;31.90;99856.69;5117152;28;20067;-71
2022/04/04 09:03:02;;;;;;;13.40;2.20;;;;;;;9.89;31.82;99862.41;5093185;28;20293;-70
2022/04/04 09:05:33;;;;;;;3.28;2.10;;;;;;;10.04;31.39;99849.75;5081266;28;20090;-70
2022/04/04 09:08:05;;;;;;;4.35;2.20;;;;;;;10.06;32.68;99856.56;5076745;28;20051;-71
2022/04/04 09:10:40;;;;;;;3.92;2.17;;;;;;;10.38;32.30;99853.31;5076295;28;20040;-70
2022/04/04 09:13:10;;;;;;;4.35;2.72;;;;;;;10.15;30.62;99848.13;5111913;28;20481;-67
2022/04/04 09:15:51;;;;;;;4.75;2.42;;;;;;;9.29;34.01;99847.63;5116906;28;20040;-67
2022/04/04 09:18:25;;;;;;;4.32;2.30;;;;;;;10.63;31.57;99835.47;5117142;28;20126;-70
2022/04/04 09:20:54;;;;;;;9.40;2.63;;;;;;;10.95;31.19;99837.22;5116657;28;20056;-69
2022/04/04 09:23:22;;;;;;;4.57;2.40;;;;;;;10.25;30.25;99826.03;5105610;28;20114;-70
2022/04/04 09:25:53;;;;;;;4.23;2.37;;;;;;;10.81;30.80;99823.59;5116656;28;20114;-68
2022/04/04 09:28:22;;;;;;;4.50;2.55;;;;;;;10.36;31.81;99826.94;5116663;28;20443;-69
2022/04/04 09:31:06;;;;;;;3.13;1.85;;;;;;;10.58;31.29;99826.97;5096599;28;20115;-70
2022/04/04 09:33:36;;;;;;;6.13;2.92;;;;;;;10.60;31.95;99825.28;5078786;28;20040;-69
2022/04/04 09:36:06;;;;;;;5.95;2.50;;;;;;;10.54;32.19;99816.75;5087116;28;20367;-69
2022/04/04 09:38:36;;;;;;;5.65;2.90;;;;;;;10.73;31.23;99821.88;5075921;28;20071;-71
2022/04/04 09:41:22;;;;;;;4.78;2.67;;;;;;;10.99;31.90;99813.41;5075806;28;20044;-70
2022/04/04 09:43:51;;;;;;;4.72;2.70;;;;;;;11.06;32.00;99815.09;5075725;28;20044;-69
2022/04/04 09:46:20;;;;;;;4.95;2.72;;;;;;;11.38;30.68;99803.13;5083183;28;20044;-70
2022/04/04 09:49:07;;;;;;;4.47;2.15;;;;;;;10.84;31.33;99798.06;5097631;28;20036;-70
2022/04/04 09:51:37;;;;;;;4.68;2.90;;;;;;;11.12;32.03;99794.66;5095864;28;20032;-71
2022/04/04 09:54:09;;;;;;;5.55;2.58;;;;;;;11.60;30.12;99789.44;5095604;28;20040;-71
2022/04/04 09:56:40;;;;;;;4.10;2.40;;;;;;;11.35;29.78;99788.63;5096201;28;20501;-69
2022/04/04 09:59:12;;;;;;;4.55;2.63;;;;;;;10.60;30.58;99774.25;5085171;28;20036;-69
2022/04/04 10:01:42;;;;;;;4.38;2.40;;;;;;;9.92;30.74;99775.75;5098826;28;20484;-69
2022/04/04 10:04:13;;;;;;;6.07;3.20;;;;;;;10.88;31.81;99779.34;5109667;28;20046;-69
2022/04/04 10:06:47;;;;;;;5.97;3.20;;;;;;;11.18;30.46;99769.09;5094249;28;20532;-69
2022/04/04 10:09:16;;;;;;;5.13;2.72;;;;;;;10.94;31.50;99753.81;5094899;28;20127;-71
2022/04/04 10:11:47;;;;;;;7.40;3.00;;;;;;;11.79;32.01;99768.09;5094611;28;20052;-70
2022/04/04 10:14:17;;;;;;;6.28;2.97;;;;;;;11.44;31.30;99755.38;5095679;28;20040;-69
2022/04/04 10:16:48;;;;;;;7.30;3.22;;;;;;;9.38;32.64;99761.94;5093202;28;20127;-70
2022/04/04 10:19:18;;;;;;;4.82;2.67;;;;;;;10.04;32.14;99737.56;5093532;28;20044;-69
2022/04/04 10:21:47;;;;;;;4.38;2.78;;;;;;;10.89;32.74;99745.31;5104494;28;20047;-70
2022/04/04 10:24:17;;;;;;;5.33;3.20;;;;;;;10.04;33.87;99745.22;5093384;28;20075;-69
2022/04/04 10:26:50;;;;;;;4.93;2.97;;;;;;;10.02;32.36;99740.13;5076482;28;20040;-69
2022/04/04 10:29:22;;;;;;;5.07;3.05;;;;;;;11.29;31.42;99732.47;5075190;28;20094;-69
2022/04/04 10:31:52;;;;;;;4.63;2.85;;;;;;;11.17;31.50;99726.53;5074820;28;20052;-70
2022/04/04 10:34:23;;;;;;;6.00;3.20;;;;;;;11.43;31.15;99730.69;5090266;28;20060;-70
2022/04/04 10:37:04;;;;;;;5.80;3.03;;;;;;;12.50;31.43;99718.19;5115489;28;20473;-70
2022/04/04 10:39:41;;;;;;;4.95;3.15;;;;;;;12.06;29.77;99714.25;5100851;28;20048;-69
2022/04/04 10:42:34;;;;;;;7.32;3.25;;;;;;;11.19;31.45;99720.56;5075559;28;20055;-69
2022/04/04 10:45:09;;;;;;;5.18;3.30;;;;;;;9.92;33.66;99717.13;5055934;28;20040;-68
2022/04/04 10:51:31;;;;;;;8.15;3.47;;;;;;;9.65;33.69;99699.19;5074612;28;20056;-67
2022/04/04 10:54:04;;;;;;;5.13;3.42;;;;;;;9.82;35.54;99700.97;5089419;28;20591;-70
2022/04/04 10:56:34;;;;;;;6.47;3.58;;;;;;;10.42;35.21;99696.81;5101889;28;20120;-69
2022/04/04 10:59:28;;;;;;;7.40;3.45;;;;;;;10.13;34.33;99689.16;5083106;28;20040;-68
2022/04/04 11:02:01;;;;;;;6.40;3.42;;;;;;;9.84;35.93;99678.00;5074202;28;20051;-68
2022/04/04 11:04:31;;;;;;;5.10;3.28;;;;;;;10.72;33.85;99681.50;5074235;28;20102;-68
2022/04/04 11:09:50;;;;;;;5.13;2.90;;;;;;;8.66;35.61;99670.72;5074101;28;20544;-68
2022/04/04 11:12:23;;;;;;;5.25;3.10;;;;;;;8.78;36.04;99657.25;5074077;28;20055;-70
2022/04/04 11:14:57;;;;;;;6.32;3.15;;;;;;;9.40;35.83;99643.09;5073925;28;20052;-70
2022/04/04 11:17:36;;;;;;;6.45;3.05;;;;;;;9.09;36.64;99650.63;5073639;28;20048;-70
2022/04/04 11:20:32;;;;;;;5.20;3.10;;;;;;;9.36;37.64;99641.38;5056063;28;20057;-69
2022/04/04 11:23:08;;;;;;;6.30;3.45;;;;;;;9.30;37.87;99641.38;5093002;28;20493;-69
2022/04/04 11:25:52;;;;;;;4.80;2.92;;;;;;;8.96;37.05;99644.59;5107501;28;20076;-70
2022/04/04 11:28:24;;;;;;;5.68;2.90;;;;;;;8.81;38.02;99643.66;5083413;28;20131;-69
2022/04/04 11:30:54;;;;;;;4.75;2.75;;;;;;;8.78;37.70;99645.34;5074013;28;20115;-70
2022/04/04 11:33:54;;;;;;;4.88;2.90;;;;;;;9.57;34.70;99629.56;5084486;28;20127;-70
2022/04/04 11:36:23;;;;;;;5.43;2.88;;;;;;;9.15;34.55;99615.84;5073391;28;20502;-71
2022/04/04 11:38:57;;;;;;;4.85;3.00;;;;;;;9.07;35.70;99626.84;5073527;28;20048;-70
2022/04/04 11:41:46;;;;;;;5.00;3.10;;;;;;;8.77;35.05;99613.13;5074103;28;20045;-70
2022/04/04 11:44:24;;;;;;;6.47;3.10;;;;;;;9.88;34.90;99610.91;5073633;28;20041;-70
2022/04/04 11:47:05;;;;;;;5.30;2.95;;;;;;;9.92;33.99;99607.50;5073375;28;20048;-69
2022/04/04 11:49:37;;;;;;;5.82;2.65;;;;;;;9.29;34.99;99609.09;5075670;28;20036;-70
2022/04/04 11:52:09;;;;;;;7.70;2.78;;;;;;;9.16;35.31;99603.97;5082529;28;20051;-70
2022/04/04 11:54:41;;;;;;;4.90;3.13;;;;;;;10.49;32.92;99597.31;5073416;28;20055;-70
2022/04/04 11:57:13;;;;;;;5.20;2.80;;;;;;;12.15;31.16;99553.84;5090592;28;20074;-70
2022/04/04 11:59:43;;;;;;;4.93;2.92;;;;;;;12.66;30.99;99578.94;5092585;28;20055;-71
2022/04/04 12:02:14;;;;;;;5.18;3.10;;;;;;;10.68;31.24;99570.88;5079897;28;20094;-71
2022/04/04 12:04:45;;;;;;;5.18;3.00;;;;;;;9.74;32.34;99567.56;5092896;28;20052;-72
2022/04/04 12:07:14;;;;;;;6.88;3.63;;;;;;;10.37;32.01;99566.72;5092569;28;20044;-71